Time;durP1;ratioP1;P1;durP2;ratioP2;P2;SDS_P1;SDS_P2;PMS_P1;PMS_P2;Temp;Humidity;BMP_temperature;BMP_pressure;BME280_temperature;BME280_humidity;BME280_pressure;Samples;Min_cycle;Max_cycle;Signal;HPM_P1;HPM_P2
2023/10/12 00:00:41;;;;;;;25.75;15.00;;;;;;;16.83;100.00;101150.75;10588438;28;20055;-73
2023/10/12 00:05:45;;;;;;;33.38;14.15;;;;;;;16.72;100.00;101152.38;10569159;28;20130;-73
2023/10/12 00:10:46;;;;;;;16.95;11.98;;;;;;;16.59;100.00;101164.31;10586202;28;20039;-74
2023/10/12 00:15:47;;;;;;;30.52;11.20;;;;;;;16.52;100.00;101186.25;10588274;28;20044;-74
2023/10/12 00:20:53;;;;;;;26.60;11.80;;;;;;;16.46;100.00;101179.00;10591438;28;20067;-73
2023/10/12 00:25:58;;;;;;;21.40;8.85;;;;;;;16.35;100.00;101187.13;10593029;28;20030;-72
2023/10/12 00:31:05;;;;;;;23.85;8.82;;;;;;;16.26;100.00;101183.84;10586034;28;20466;-71
2023/10/12 00:36:19;;;;;;;16.00;6.72;;;;;;;16.10;100.00;101193.50;10586121;28;20099;-72
2023/10/12 00:41:20;;;;;;;10.27;6.57;;;;;;;16.05;100.00;101190.63;10585462;28;20440;-72
2023/10/12 00:51:30;;;;;;;10.77;6.73;;;;;;;15.99;100.00;101192.38;10584404;28;20130;-72
2023/10/12 00:56:31;;;;;;;20.45;8.32;;;;;;;16.01;100.00;101175.72;10583409;28;20276;-74
2023/10/12 01:01:32;;;;;;;10.88;6.18;;;;;;;15.99;100.00;101173.25;10584796;28;20066;-72
2023/10/12 01:06:33;;;;;;;17.65;7.63;;;;;;;15.96;100.00;101172.88;10584826;28;20038;-72
2023/10/12 01:11:36;;;;;;;12.57;5.65;;;;;;;15.94;100.00;101161.31;10584927;28;20032;-73
2023/10/12 01:16:58;;;;;;;11.23;5.28;;;;;;;15.94;100.00;101164.88;10585159;28;20481;-72
2023/10/12 01:22:04;;;;;;;23.23;5.38;;;;;;;15.98;100.00;101168.00;10582596;28;20084;-73
2023/10/12 01:27:05;;;;;;;6.68;4.18;;;;;;;16.00;100.00;101153.06;10585128;28;20035;-71
2023/10/12 01:37:21;;;;;;;8.10;4.65;;;;;;;16.04;100.00;101158.88;10584729;28;20111;-72
2023/10/12 01:42:24;;;;;;;12.45;5.65;;;;;;;16.02;100.00;101153.66;10587420;28;20039;-73
2023/10/12 01:47:25;;;;;;;14.85;4.30;;;;;;;16.06;100.00;101139.56;10592227;28;20077;-73
2023/10/12 01:52:28;;;;;;;5.88;3.60;;;;;;;16.01;100.00;101153.88;10603449;27;20447;-73
2023/10/12 01:57:36;;;;;;;5.75;3.13;;;;;;;15.99;100.00;101154.13;10582642;28;20102;-73
2023/10/12 02:02:40;;;;;;;11.95;3.45;;;;;;;15.97;100.00;101139.84;10582415;28;20059;-73
2023/10/12 02:07:40;;;;;;;4.68;3.90;;;;;;;15.94;100.00;101137.56;10583193;28;20054;-73
2023/10/12 02:12:41;;;;;;;2.58;2.38;;;;;;;15.92;100.00;101141.59;10581930;28;20042;-73
2023/10/12 02:17:49;;;;;;;4.15;3.58;;;;;;;15.91;100.00;101116.16;10580605;28;20031;-73
2023/10/12 02:22:52;;;;;;;7.35;3.22;;;;;;;15.87;100.00;101122.34;10565071;28;20032;-73
2023/10/12 02:27:56;;;;;;;5.00;2.58;;;;;;;15.86;100.00;101112.44;10582259;28;20040;-74
2023/10/12 02:33:12;;;;;;;14.20;3.60;;;;;;;15.85;100.00;101118.97;10581891;28;20133;-73
2023/10/12 02:38:15;;;;;;;8.87;3.47;;;;;;;15.87;100.00;101133.25;10581218;28;20447;-72
2023/10/12 02:43:16;;;;;;;16.80;5.28;;;;;;;15.91;100.00;101138.03;10580948;28;20799;-73
2023/10/12 02:48:23;;;;;;;9.80;4.05;;;;;;;15.92;100.00;101128.78;10581425;28;20252;-74
2023/10/12 02:53:29;;;;;;;3.88;2.55;;;;;;;15.96;100.00;101110.88;10581598;28;20067;-73
2023/10/12 02:58:32;;;;;;;11.73;3.55;;;;;;;15.97;100.00;101130.81;10580044;28;20030;-73
2023/10/12 03:03:36;;;;;;;13.95;4.20;;;;;;;16.00;100.00;101136.66;10562637;28;20031;-72
2023/10/12 03:14:26;;;;;;;9.77;4.25;;;;;;;16.08;100.00;101131.94;10578570;28;20032;-74
2023/10/12 03:19:26;;;;;;;6.45;4.25;;;;;;;16.14;100.00;101147.44;10579858;28;20052;-73
2023/10/12 03:24:38;;;;;;;10.05;4.72;;;;;;;16.17;100.00;101149.69;10579450;28;20108;-72
2023/10/12 03:29:43;;;;;;;3.40;2.65;;;;;;;16.15;100.00;101163.59;10580921;28;20077;-74
2023/10/12 03:39:59;;;;;;;4.60;2.38;;;;;;;16.12;100.00;101158.59;10579766;28;20082;-73
2023/10/12 03:45:13;;;;;;;2.28;2.17;;;;;;;16.11;100.00;101161.53;10580346;28;20467;-74
2023/10/12 03:50:17;;;;;;;5.07;1.67;;;;;;;16.07;100.00;101160.34;10578260;28;20035;-71
2023/10/12 03:55:27;;;;;;;4.72;2.17;;;;;;;16.07;100.00;101155.69;10578957;28;20055;-74
2023/10/12 04:00:34;;;;;;;5.47;2.58;;;;;;;16.02;100.00;101150.09;10564081;28;20032;-73
2023/10/12 04:05:36;;;;;;;1.85;1.75;;;;;;;16.04;100.00;101158.88;10579038;28;20034;-73
2023/10/12 04:21:04;;;;;;;1.20;1.08;;;;;;;16.05;100.00;101179.69;10579718;28;20039;-74
2023/10/12 04:31:20;;;;;;;1.42;1.42;;;;;;;16.05;100.00;101171.50;10585277;28;20055;-70
2023/10/12 04:46:48;;;;;;;2.95;2.30;;;;;;;16.10;100.00;101206.31;10585021;27;20031;-72
2023/10/12 04:52:06;;;;;;;2.03;1.83;;;;;;;16.10;100.00;101209.88;10567994;28;20067;-71
2023/10/12 05:12:25;;;;;;;9.80;6.65;;;;;;;15.51;100.00;101223.03;10587498;28;20482;-75
2023/10/12 05:17:27;;;;;;;12.88;7.53;;;;;;;15.39;100.00;101218.50;10586574;28;20067;-73
2023/10/12 05:22:27;;;;;;;10.82;7.72;;;;;;;15.32;100.00;101243.13;10583910;28;20142;-72
2023/10/12 05:27:33;;;;;;;11.48;7.28;;;;;;;15.27;100.00;101237.47;10583836;28;20391;-71
2023/10/12 05:32:43;;;;;;;7.78;5.53;;;;;;;15.07;100.00;101238.44;10582612;28;20052;-70
2023/10/12 05:37:50;;;;;;;4.28;3.88;;;;;;;14.94;100.00;101243.16;10581346;28;20052;-70
2023/10/12 05:42:50;;;;;;;4.65;3.83;;;;;;;14.74;100.00;101241.34;10582621;28;20051;-69
2023/10/12 05:47:54;;;;;;;1.35;1.25;;;;;;;14.58;100.00;101242.69;10581762;28;20063;-71
2023/10/12 05:52:59;;;;;;;0.40;0.40;;;;;;;14.59;100.00;101243.50;10566189;28;20486;-71
2023/10/12 05:58:11;;;;;;;0.40;0.40;;;;;;;14.44;100.00;101246.44;10586750;28;20100;-74
2023/10/12 06:03:19;;;;;;;0.25;0.25;;;;;;;14.33;100.00;101256.13;10602987;27;20032;-74
2023/10/12 06:08:24;;;;;;;17.73;4.32;;;;;;;14.17;100.00;101273.78;10583615;28;20046;-71
2023/10/12 06:13:30;;;;;;;0.40;0.40;;;;;;;14.03;100.00;101272.09;10565624;28;20070;-69
2023/10/12 06:18:31;;;;;;;0.40;0.40;;;;;;;13.99;100.00;101278.19;10581760;28;20034;-68
2023/10/12 06:23:31;;;;;;;0.32;0.32;;;;;;;13.84;100.00;101283.84;10596864;27;20034;-69
2023/10/12 06:28:32;;;;;;;0.73;0.52;;;;;;;13.89;100.00;101294.94;10562906;28;20031;-69
2023/10/12 06:33:32;;;;;;;0.30;0.30;;;;;;;13.91;100.00;101290.13;10582023;28;20052;-68
2023/10/12 06:39:02;;;;;;;0.35;0.35;;;;;;;13.85;100.00;101294.53;10579400;28;20110;-69
2023/10/12 06:49:28;;;;;;;0.68;0.68;;;;;;;13.74;100.00;101306.03;10579853;28;20458;-70
2023/10/12 06:54:33;;;;;;;0.90;0.85;;;;;;;13.78;100.00;101320.06;10578655;28;20035;-69
2023/10/12 06:59:35;;;;;;;0.32;0.32;;;;;;;13.78;100.00;101322.78;10579980;27;20036;-70
2023/10/12 07:04:38;;;;;;;2.40;2.25;;;;;;;13.85;100.00;101329.94;10581168;28;20055;-71
2023/10/12 07:09:39;;;;;;;0.50;0.50;;;;;;;13.79;100.00;101329.94;10580436;28;20084;-71
2023/10/12 07:14:46;;;;;;;0.40;0.40;;;;;;;13.78;100.00;101339.13;10579533;28;20085;-72
2023/10/12 07:19:47;;;;;;;0.30;0.30;;;;;;;13.80;100.00;101340.59;10579209;28;20070;-70
2023/10/12 07:24:53;;;;;;;0.82;0.82;;;;;;;13.83;100.00;101342.06;10578721;28;20042;-69
2023/10/12 07:30:14;;;;;;;0.35;0.35;;;;;;;13.72;100.00;101338.91;10578511;28;20066;-69
2023/10/12 07:35:18;;;;;;;0.60;0.60;;;;;;;13.71;100.00;101355.44;10579012;28;20090;-67
2023/10/12 07:40:19;;;;;;;1.45;1.38;;;;;;;13.66;100.00;101368.84;10577610;28;20035;-66
2023/10/12 07:45:19;;;;;;;0.75;0.75;;;;;;;13.52;100.00;101357.06;10595658;28;20032;-67
2023/10/12 07:50:25;;;;;;;0.40;0.40;;;;;;;13.50;100.00;101353.75;10580018;28;20050;-66
2023/10/12 07:55:28;;;;;;;0.57;0.57;;;;;;;13.57;100.00;101349.16;10579030;28;20397;-69
2023/10/12 08:16:03;;;;;;;1.92;1.77;;;;;;;13.88;100.00;101362.19;10586446;28;20118;-69
2023/10/12 08:21:01;;;;;;;0.40;0.40;;;;;;;14.00;100.00;101365.09;10589123;28;20044;-69
2023/10/12 08:26:02;;;;;;;0.90;0.90;;;;;;;14.02;100.00;101367.63;10592332;27;20055;-70
2023/10/12 08:31:15;;;;;;;0.38;0.38;;;;;;;13.96;100.00;101375.56;10588796;28;20038;-70
2023/10/12 08:41:29;;;;;;;0.70;0.70;;;;;;;13.79;100.00;101373.47;10587145;28;20453;-70
2023/10/12 08:52:04;;;;;;;0.60;0.60;;;;;;;13.79;100.00;101373.47;10585484;28;20462;-70
2023/10/12 08:57:02;;;;;;;1.30;0.82;;;;;;;13.83;100.00;101333.91;10583572;28;20032;-69
2023/10/12 09:02:18;;;;;;;0.38;0.38;;;;;;;13.90;100.00;101351.06;10566254;28;20110;-69
2023/10/12 09:07:21;;;;;;;0.32;0.32;;;;;;;13.95;100.00;101343.13;10568933;28;20027;-69
2023/10/12 09:12:23;;;;;;;0.80;0.80;;;;;;;14.15;100.00;101335.78;10565664;28;20031;-69
2023/10/12 09:17:27;;;;;;;2.72;1.00;;;;;;;14.09;100.00;101331.16;10584798;28;20104;-70
2023/10/12 09:22:29;;;;;;;0.40;0.40;;;;;;;14.07;100.00;101336.00;10583828;28;20063;-69
2023/10/12 09:27:36;;;;;;;0.30;0.30;;;;;;;13.91;100.00;101322.78;10599643;27;20038;-70
2023/10/12 09:32:46;;;;;;;0.50;0.50;;;;;;;14.06;100.00;101336.19;10582242;28;20475;-69
2023/10/12 09:37:56;;;;;;;26.10;2.35;;;;;;;14.19;100.00;101337.03;10584028;28;20039;-70
2023/10/12 09:43:00;;;;;;;0.40;0.40;;;;;;;14.13;100.00;101329.69;10565460;28;20035;-70
2023/10/12 09:48:05;;;;;;;0.40;0.40;;;;;;;14.24;100.00;101321.94;10582761;28;20122;-70
2023/10/12 09:53:21;;;;;;;0.40;0.40;;;;;;;14.25;100.00;101310.00;10564350;28;20062;-70
2023/10/12 09:58:25;;;;;;;0.73;0.73;;;;;;;14.29;100.00;101311.25;10569448;27;20032;-69
2023/10/12 10:03:34;;;;;;;0.47;0.47;;;;;;;14.32;100.00;101310.81;10579855;28;20493;-69
2023/10/12 10:08:35;;;;;;;0.40;0.40;;;;;;;14.53;100.00;101293.41;10548706;28;20074;-68
2023/10/12 10:13:49;;;;;;;0.70;0.70;;;;;;;14.56;100.00;101285.66;10562826;28;20036;-69
2023/10/12 10:19:13;;;;;;;0.73;0.73;;;;;;;14.53;100.00;101287.97;10580188;28;20055;-69
2023/10/12 10:24:19;;;;;;;0.50;0.50;;;;;;;14.59;100.00;101282.50;10566210;28;20502;-69
2023/10/12 10:29:20;;;;;;;0.50;0.50;;;;;;;14.60;100.00;101272.44;10574162;28;20085;-69
2023/10/12 10:34:23;;;;;;;0.40;0.40;;;;;;;14.60;100.00;101267.81;10592924;28;20067;-69
2023/10/12 10:44:27;;;;;;;0.45;0.45;;;;;;;14.73;100.00;101272.38;10579746;28;20051;-68
2023/10/12 10:49:31;;;;;;;0.50;0.50;;;;;;;14.76;100.00;101274.66;10581250;28;20385;-68
2023/10/12 10:54:33;;;;;;;0.40;0.40;;;;;;;14.87;100.00;101282.19;10579901;28;20036;-69
2023/10/12 10:59:34;;;;;;;1.25;1.25;;;;;;;14.91;100.00;101279.84;10578968;28;20042;-68
2023/10/12 11:10:05;;;;;;;1.05;1.05;;;;;;;14.84;100.00;101255.34;10579819;28;20050;-68
2023/10/12 11:15:11;;;;;;;0.70;0.70;;;;;;;15.05;100.00;101234.25;10565020;28;20074;-70
2023/10/12 11:20:26;;;;;;;1.92;1.85;;;;;;;15.21;100.00;101231.00;10578548;28;20040;-68
2023/10/12 11:25:27;;;;;;;1.20;1.20;;;;;;;15.39;100.00;101230.25;10580579;28;20463;-69
2023/10/12 11:30:31;;;;;;;1.50;1.45;;;;;;;15.49;100.00;101213.38;10579764;28;20065;-69
2023/10/12 11:35:40;;;;;;;2.58;1.50;;;;;;;15.57;100.00;101211.22;10585762;28;20055;-70
2023/10/12 11:40:40;;;;;;;0.82;0.82;;;;;;;15.56;100.00;101212.25;10587712;28;20039;-69
2023/10/12 11:46:01;;;;;;;1.55;1.50;;;;;;;15.63;100.00;101197.72;10586623;28;20035;-70
2023/10/12 11:51:11;;;;;;;1.63;1.58;;;;;;;15.64;100.00;101191.22;10570011;28;20039;-70
2023/10/12 11:56:15;;;;;;;0.70;0.70;;;;;;;15.70;100.00;101190.34;10585914;28;20034;-70
2023/10/12 12:01:15;;;;;;;40.65;4.22;;;;;;;15.79;100.00;101191.72;10587118;28;20174;-70
2023/10/12 12:06:18;;;;;;;1.67;1.58;;;;;;;15.85;100.00;101201.72;10585321;28;20122;-70
2023/10/12 12:11:19;;;;;;;2.10;2.00;;;;;;;15.98;100.00;101212.53;10589838;28;20054;-70
2023/10/12 12:16:22;;;;;;;2.97;2.35;;;;;;;16.03;100.00;101236.44;10585842;28;20032;-70
2023/10/12 12:21:34;;;;;;;3.03;1.83;;;;;;;16.14;100.00;101240.31;10584091;28;20027;-70
2023/10/12 12:26:35;;;;;;;2.17;1.98;;;;;;;16.06;100.00;101195.03;10585719;28;20462;-72
2023/10/12 12:31:36;;;;;;;2.85;2.75;;;;;;;16.04;100.00;101176.09;10584025;28;20192;-74
2023/10/12 12:36:38;;;;;;;0.95;0.95;;;;;;;16.14;100.00;101189.25;10587372;28;20094;-74
2023/10/12 12:41:39;;;;;;;1.20;1.20;;;;;;;16.34;100.00;101180.00;10586063;28;20071;-74
2023/10/12 12:46:39;;;;;;;8.00;2.72;;;;;;;16.54;100.00;101186.03;10583358;28;20059;-75
2023/10/12 12:51:40;;;;;;;3.13;3.03;;;;;;;16.54;100.00;101202.44;10585097;28;20050;-71
2023/10/12 12:56:42;;;;;;;3.67;3.47;;;;;;;16.47;100.00;101196.22;10584842;28;20446;-72
2023/10/12 13:01:45;;;;;;;3.03;2.83;;;;;;;16.50;100.00;101193.03;10584420;28;20054;-72
2023/10/12 13:06:48;;;;;;;1.23;1.13;;;;;;;16.57;100.00;101169.19;10600552;27;20447;-73
2023/10/12 13:11:48;;;;;;;1.92;1.83;;;;;;;16.67;100.00;101136.66;10582653;28;20028;-72
2023/10/12 13:16:49;;;;;;;1.42;1.42;;;;;;;16.62;100.00;101149.34;10581844;28;20036;-73
2023/10/12 13:21:50;;;;;;;2.58;1.67;;;;;;;16.56;100.00;101161.19;10584108;28;20035;-74
2023/10/12 13:26:51;;;;;;;1.75;1.75;;;;;;;16.81;100.00;101169.28;10582866;28;20032;-73
2023/10/12 13:31:51;;;;;;;1.50;1.48;;;;;;;16.95;100.00;101160.69;10584426;28;20123;-73
2023/10/12 13:36:52;;;;;;;2.42;2.33;;;;;;;17.09;100.00;101166.78;10583607;28;20028;-73
2023/10/12 13:41:52;;;;;;;1.60;1.50;;;;;;;17.12;100.00;101169.03;10581630;28;20120;-73
2023/10/12 13:46:53;;;;;;;8.05;2.58;;;;;;;17.28;100.00;101162.06;10583537;28;20037;-74
2023/10/12 13:51:54;;;;;;;6.28;1.85;;;;;;;17.32;100.00;101178.84;10583673;28;20031;-75
2023/10/12 13:56:58;;;;;;;3.47;3.28;;;;;;;17.32;100.00;101165.97;10580203;28;20036;-74
2023/10/12 14:01:59;;;;;;;1.85;1.75;;;;;;;17.33;100.00;101177.78;10583227;28;20031;-75
2023/10/12 14:07:03;;;;;;;1.00;1.00;;;;;;;17.23;100.00;101169.28;10581287;28;20458;-75
2023/10/12 14:12:05;;;;;;;1.85;1.75;;;;;;;17.21;100.00;101166.81;10580971;28;20051;-75
2023/10/12 14:17:07;;;;;;;1.77;1.67;;;;;;;17.25;100.00;101164.44;10580950;28;20035;-75
2023/10/12 14:22:07;;;;;;;6.60;3.60;;;;;;;17.40;100.00;101159.34;10582556;28;20050;-76
2023/10/12 14:27:08;;;;;;;1.23;1.23;;;;;;;17.39;100.00;101153.03;10581366;28;20038;-78
2023/10/12 14:32:08;;;;;;;3.03;1.75;;;;;;;17.32;100.00;101138.59;10581342;28;20081;-75
2023/10/12 14:37:13;;;;;;;1.65;1.58;;;;;;;17.37;100.00;101141.47;10580592;28;20120;-75
2023/10/12 14:42:16;;;;;;;2.80;2.33;;;;;;;17.38;100.00;101145.88;10582298;28;20047;-75
2023/10/12 14:47:16;;;;;;;1.60;1.58;;;;;;;17.23;100.00;101151.00;10581622;28;20028;-75
2023/10/12 14:52:17;;;;;;;0.85;0.82;;;;;;;17.17;100.00;101127.31;10580771;28;20039;-75
2023/10/12 14:57:17;;;;;;;1.48;1.38;;;;;;;17.19;100.00;101125.16;10579088;28;20058;-75
2023/10/12 15:02:18;;;;;;;0.60;0.60;;;;;;;17.15;100.00;101123.97;10579502;28;20059;-75
2023/10/12 15:07:19;;;;;;;27.00;3.42;;;;;;;17.11;100.00;101114.56;10578804;28;20180;-75
2023/10/12 15:12:20;;;;;;;2.30;2.20;;;;;;;17.04;100.00;101119.28;10595813;27;20031;-76
2023/10/12 15:17:20;;;;;;;1.10;1.10;;;;;;;17.01;100.00;101123.34;10580348;28;20092;-75
2023/10/12 15:22:21;;;;;;;1.17;1.17;;;;;;;17.02;100.00;101107.75;10579715;28;20431;-74
2023/10/12 15:27:22;;;;;;;1.55;1.55;;;;;;;17.06;100.00;101108.94;10578488;28;20042;-74
2023/10/12 15:32:23;;;;;;;2.03;2.03;;;;;;;17.14;100.00;101114.91;10580354;28;20089;-75
2023/10/12 15:37:24;;;;;;;1.08;1.08;;;;;;;17.16;100.00;101107.28;10579427;28;20063;-74
2023/10/12 15:42:25;;;;;;;2.33;2.00;;;;;;;17.19;100.00;101104.06;10577695;28;20032;-74
2023/10/12 15:47:26;;;;;;;2.40;2.20;;;;;;;17.23;100.00;101106.34;10594124;28;20028;-74
2023/10/12 15:52:28;;;;;;;0.90;0.90;;;;;;;17.28;100.00;101103.75;10594930;28;20035;-74
2023/10/12 15:57:31;;;;;;;1.38;1.38;;;;;;;17.31;100.00;101106.00;10577634;28;20039;-73
2023/10/12 16:02:35;;;;;;;2.22;2.13;;;;;;;17.35;100.00;101098.97;10580092;28;20370;-75
2023/10/12 16:07:36;;;;;;;1.63;1.58;;;;;;;17.41;100.00;101115.28;10580655;28;20030;-74
2023/10/12 16:12:36;;;;;;;0.68;0.68;;;;;;;17.44;100.00;101108.50;10581044;28;20039;-75
2023/10/12 16:17:37;;;;;;;1.15;1.15;;;;;;;17.46;100.00;101119.22;10579408;28;20043;-75
2023/10/12 16:22:42;;;;;;;1.23;1.23;;;;;;;17.50;100.00;101112.19;10565125;28;20404;-75
2023/10/12 16:27:45;;;;;;;0.73;0.73;;;;;;;17.63;100.00;101129.22;10603284;27;20040;-76
2023/10/12 16:32:48;;;;;;;0.98;0.95;;;;;;;17.59;100.00;101122.56;10585113;27;20458;-77
2023/10/12 16:37:52;;;;;;;23.75;2.58;;;;;;;17.59;100.00;101129.94;10584687;28;20028;-76
2023/10/12 16:42:53;;;;;;;0.60;0.60;;;;;;;17.60;100.00;101131.59;10568673;28;20059;-76
2023/10/12 16:47:54;;;;;;;35.03;2.45;;;;;;;17.58;100.00;101115.44;10585522;28;20160;-76
2023/10/12 16:52:55;;;;;;;1.33;1.30;;;;;;;17.59;100.00;101124.47;10584186;28;20062;-76
2023/10/12 16:57:56;;;;;;;0.77;0.77;;;;;;;17.59;100.00;101127.19;10585307;28;20028;-77
2023/10/12 17:02:56;;;;;;;3.08;1.15;;;;;;;17.61;100.00;101133.25;10585327;28;20051;-75
2023/10/12 17:07:56;;;;;;;6.07;1.50;;;;;;;17.60;100.00;101129.69;10584799;28;20059;-76
2023/10/12 17:12:57;;;;;;;8.38;2.50;;;;;;;17.54;100.00;101138.84;10585739;27;20035;-77
2023/10/12 17:17:57;;;;;;;0.77;0.77;;;;;;;17.57;100.00;101138.38;10584700;28;20426;-77
2023/10/12 17:22:58;;;;;;;2.58;2.47;;;;;;;17.56;100.00;101119.47;10583245;28;20176;-77
2023/10/12 17:27:59;;;;;;;0.55;0.55;;;;;;;17.63;100.00;101137.44;10584726;28;20115;-76
2023/10/12 17:33:01;;;;;;;0.88;0.88;;;;;;;17.63;100.00;101137.44;10586678;28;20104;-77
2023/10/12 17:38:02;;;;;;;0.50;0.50;;;;;;;17.60;100.00;101151.59;10583432;28;20031;-77
2023/10/12 17:43:04;;;;;;;0.40;0.40;;;;;;;17.58;100.00;101159.25;10584378;28;20035;-76
2023/10/12 17:48:06;;;;;;;2.13;2.03;;;;;;;17.60;100.00;101169.94;10584230;28;20054;-77
2023/10/12 17:53:07;;;;;;;0.85;0.85;;;;;;;17.63;100.00;101162.06;10599816;27;20096;-77
2023/10/12 17:58:08;;;;;;;1.00;1.00;;;;;;;17.65;100.00;101172.81;10583939;28;20055;-76
2023/10/12 18:03:10;;;;;;;0.80;0.80;;;;;;;17.60;100.00;101165.28;10565724;28;20040;-76
2023/10/12 18:08:11;;;;;;;1.17;1.17;;;;;;;17.62;100.00;101165.91;10583673;28;20036;-76
2023/10/12 18:13:12;;;;;;;2.50;2.40;;;;;;;17.59;100.00;101176.50;10598971;27;20180;-76
2023/10/12 18:18:12;;;;;;;4.57;1.45;;;;;;;17.62;100.00;101174.13;10582710;28;20027;-76
2023/10/12 18:23:15;;;;;;;3.50;3.30;;;;;;;17.66;100.00;101166.25;10582742;28;20386;-76
2023/10/12 18:28:16;;;;;;;1.88;1.88;;;;;;;17.65;100.00;101179.13;10583331;28;20040;-76
2023/10/12 18:33:17;;;;;;;0.68;0.68;;;;;;;17.55;100.00;101169.81;10585040;28;20474;-78
2023/10/12 18:38:17;;;;;;;4.03;2.60;;;;;;;17.57;100.00;101175.88;10592613;28;20097;-76
2023/10/12 18:43:18;;;;;;;2.80;2.58;;;;;;;17.51;100.00;101183.13;10591553;28;20043;-82
2023/10/12 18:48:18;;;;;;;4.53;4.13;;;;;;;17.49;100.00;101187.22;10592293;28;20446;-79
2023/10/12 18:53:19;;;;;;;1.88;1.80;;;;;;;17.38;100.00;101173.25;10582419;28;20051;-79
2023/10/12 18:58:19;;;;;;;1.27;1.27;;;;;;;17.42;100.00;101188.16;10582621;28;20432;-77
2023/10/12 19:03:21;;;;;;;0.75;0.75;;;;;;;17.46;100.00;101194.00;10563808;28;20030;-79
2023/10/12 19:08:22;;;;;;;1.23;1.13;;;;;;;17.44;100.00;101190.63;10581098;28;20051;-80
2023/10/12 19:13:23;;;;;;;1.98;1.77;;;;;;;17.40;100.00;101190.28;10582795;28;20475;-79
2023/10/12 19:18:23;;;;;;;0.88;0.88;;;;;;;17.35;100.00;101192.88;10583771;28;20028;-78
2023/10/12 19:23:24;;;;;;;0.70;0.70;;;;;;;17.31;100.00;101188.94;10583430;28;20124;-78
2023/10/12 19:28:25;;;;;;;0.50;0.50;;;;;;;17.32;100.00;101173.34;10564838;28;20126;-81
2023/10/12 19:33:25;;;;;;;1.08;1.08;;;;;;;17.33;100.00;101183.25;10580706;28;20051;-75
2023/10/12 19:38:27;;;;;;;0.57;0.57;;;;;;;17.34;100.00;101179.44;10580366;28;20032;-74
2023/10/12 19:43:27;;;;;;;5.35;1.60;;;;;;;17.30;100.00;101172.78;10580900;28;20048;-76
2023/10/12 19:48:28;;;;;;;5.50;2.42;;;;;;;17.28;100.00;101169.44;10579742;28;20059;-75
2023/10/12 19:53:29;;;;;;;1.20;1.20;;;;;;;17.27;100.00;101162.31;10582129;28;20198;-75
2023/10/12 19:58:32;;;;;;;4.60;4.22;;;;;;;17.28;100.00;101164.78;10587836;28;20042;-74
2023/10/12 20:03:37;;;;;;;1.98;1.95;;;;;;;17.27;100.00;101159.56;10589429;28;20028;-75
2023/10/12 20:08:38;;;;;;;3.40;3.20;;;;;;;17.23;100.00;101159.22;10588124;28;20028;-74
2023/10/12 20:13:39;;;;;;;0.95;0.77;;;;;;;17.27;100.00;101162.31;10571275;28;20323;-75
2023/10/12 20:18:41;;;;;;;0.75;0.75;;;;;;;17.22;100.00;101165.72;10586737;28;20363;-73
2023/10/12 20:23:44;;;;;;;1.30;1.25;;;;;;;17.19;100.00;101168.94;10587826;28;20112;-73
2023/10/12 20:28:45;;;;;;;17.60;1.33;;;;;;;17.17;100.00;101166.44;10587372;28;20215;-74
2023/10/12 20:33:45;;;;;;;0.50;0.50;;;;;;;17.20;100.00;101168.72;10586835;28;20090;-74
2023/10/12 20:38:47;;;;;;;0.60;0.60;;;;;;;17.23;100.00;101172.03;10607042;27;20458;-75
2023/10/12 20:43:47;;;;;;;6.43;4.50;;;;;;;17.25;100.00;101168.00;10589099;28;20042;-74
2023/10/12 20:48:48;;;;;;;1.38;1.27;;;;;;;17.23;100.00;101161.09;10588797;28;20039;-74
2023/10/12 20:53:48;;;;;;;0.75;0.75;;;;;;;17.22;100.00;101159.44;10603789;27;20462;-76
2023/10/12 20:58:49;;;;;;;0.63;0.63;;;;;;;17.27;100.00;101152.19;10588377;28;20061;-76
2023/10/12 21:03:57;;;;;;;2.30;2.15;;;;;;;17.28;100.00;101153.00;10599354;28;20069;-76
2023/10/12 21:09:00;;;;;;;1.65;1.52;;;;;;;17.24;100.00;101162.78;10595902;28;20107;-77
2023/10/12 21:14:07;;;;;;;16.58;3.58;;;;;;;17.21;100.00;101155.84;10611654;28;20042;-78
2023/10/12 21:19:13;;;;;;;1.17;1.17;;;;;;;17.17;100.00;101151.94;10586580;28;20454;-77
2023/10/12 21:24:18;;;;;;;0.40;0.40;;;;;;;17.14;100.00;101138.72;10585075;28;20061;-77
2023/10/12 21:29:18;;;;;;;0.70;0.70;;;;;;;17.11;100.00;101123.59;10601363;27;20135;-76
2023/10/12 21:34:24;;;;;;;0.40;0.40;;;;;;;17.03;100.00;101125.84;10584429;28;20051;-77
2023/10/12 21:39:43;;;;;;;0.93;0.93;;;;;;;17.01;100.00;101128.81;10584360;28;20055;-78
2023/10/12 21:44:44;;;;;;;0.68;0.68;;;;;;;17.02;100.00;101122.28;10585888;28;20075;-76
2023/10/12 21:49:44;;;;;;;0.70;0.70;;;;;;;17.04;100.00;101130.22;10586080;28;20047;-76
2023/10/12 21:54:48;;;;;;;0.47;0.47;;;;;;;17.04;100.00;101130.22;10584497;28;20038;-73
2023/10/12 21:59:50;;;;;;;0.52;0.52;;;;;;;17.03;100.00;101112.16;10567764;28;20039;-77
2023/10/12 22:04:50;;;;;;;1.50;1.50;;;;;;;17.10;100.00;101113.72;10582997;28;20062;-73
2023/10/12 22:10:02;;;;;;;0.85;0.85;;;;;;;17.07;100.00;101114.19;10583759;28;20498;-74
2023/10/12 22:15:14;;;;;;;1.10;1.10;;;;;;;17.07;100.00;101110.59;10581724;28;20028;-74
2023/10/12 22:20:18;;;;;;;0.70;0.70;;;;;;;17.03;100.00;101095.75;10582050;28;20028;-74
2023/10/12 22:25:19;;;;;;;6.43;2.88;;;;;;;16.97;100.00;101102.97;10582263;28;20036;-74
2023/10/12 22:30:19;;;;;;;0.77;0.77;;;;;;;17.00;100.00;101101.69;10582740;28;20035;-73
2023/10/12 22:35:20;;;;;;;0.50;0.50;;;;;;;17.03;100.00;101096.56;10582429;28;20134;-75
2023/10/12 22:40:20;;;;;;;0.45;0.45;;;;;;;17.02;100.00;101091.34;10580771;28;20471;-74
2023/10/12 22:45:21;;;;;;;1.02;1.02;;;;;;;17.02;100.00;101094.91;10580047;28;20539;-75
2023/10/12 22:50:21;;;;;;;2.03;2.00;;;;;;;16.99;100.00;101089.91;10580695;28;20173;-76
2023/10/12 22:55:21;;;;;;;0.63;0.63;;;;;;;17.01;100.00;101104.19;10582162;28;20031;-75
2023/10/12 23:00:25;;;;;;;0.63;0.63;;;;;;;16.98;100.00;101096.47;10581354;28;20377;-75
2023/10/12 23:05:26;;;;;;;0.57;0.57;;;;;;;16.97;100.00;101097.50;10582481;28;20042;-76
2023/10/12 23:10:27;;;;;;;0.60;0.60;;;;;;;16.96;100.00;101087.66;10582560;28;20036;-76
2023/10/12 23:15:27;;;;;;;0.85;0.85;;;;;;;16.99;100.00;101086.34;10581641;28;20489;-77
2023/10/12 23:20:37;;;;;;;4.13;1.95;;;;;;;16.95;100.00;101092.28;10580873;28;20446;-77
2023/10/12 23:25:44;;;;;;;1.63;1.63;;;;;;;16.98;100.00;101090.16;10582155;28;20058;-78
2023/10/12 23:30:52;;;;;;;0.40;0.40;;;;;;;16.96;100.00;101080.25;10572037;28;20059;-78
2023/10/12 23:35:53;;;;;;;0.45;0.45;;;;;;;17.02;100.00;101085.88;10610057;27;20067;-77
2023/10/12 23:46:13;;;;;;;1.15;1.15;;;;;;;16.99;100.00;101089.06;10608235;28;20035;-76
2023/10/12 23:51:13;;;;;;;0.50;0.50;;;;;;;17.01;100.00;101084.22;10577843;28;20126;-76
2023/10/12 23:56:16;;;;;;;3.70;2.85;;;;;;;16.99;100.00;101078.97;10595442;27;20039;-77
